createdAt,value
2022-08-07T00:00:14.562Z,20.47
2022-08-07T00:02:44.508Z,20.43
2022-08-07T00:05:11.649Z,20.41
2022-08-07T00:07:41.154Z,20.41
2022-08-07T00:10:27.050Z,20.41
2022-08-07T00:12:59.932Z,20.43
2022-08-07T00:15:38.269Z,20.44
2022-08-07T00:18:18.819Z,20.43
2022-08-07T00:20:46.668Z,20.40
2022-08-07T00:23:14.890Z,20.32
2022-08-07T00:25:52.517Z,20.33
2022-08-07T00:28:33.440Z,20.29
2022-08-07T00:31:12.476Z,20.26
2022-08-07T00:33:42.953Z,20.25
2022-08-07T00:36:14.031Z,20.22
2022-08-07T00:38:40.870Z,20.14
2022-08-07T00:41:10.087Z,20.11
2022-08-07T00:44:00.495Z,20.03
2022-08-07T00:46:30.992Z,19.99
2022-08-07T00:49:02.639Z,19.98
2022-08-07T00:51:58.271Z,19.87
2022-08-07T00:54:19.779Z,19.78
2022-08-07T00:56:50.348Z,19.72
2022-08-07T00:59:19.946Z,19.75
2022-08-07T01:01:57.915Z,19.76
2022-08-07T01:04:27.839Z,19.69
2022-08-07T01:07:06.421Z,19.66
2022-08-07T01:10:06.171Z,19.66
2022-08-07T01:12:29.778Z,19.68
2022-08-07T01:15:01.197Z,19.69
2022-08-07T01:17:30.780Z,19.57
2022-08-07T01:20:03.631Z,19.57
2022-08-07T01:22:31.005Z,19.49
2022-08-07T01:24:58.730Z,19.34
2022-08-07T01:27:25.457Z,19.34
2022-08-07T01:30:01.582Z,19.00
2022-08-07T01:32:31.120Z,18.74
2022-08-07T01:34:57.829Z,18.67
2022-08-07T01:37:26.936Z,18.56
2022-08-07T01:40:02.134Z,18.40
2022-08-07T01:42:40.219Z,18.10
2022-08-07T01:45:22.739Z,18.07
2022-08-07T01:48:29.654Z,18.05
2022-08-07T01:50:40.287Z,17.92
2022-08-07T01:53:11.743Z,17.72
2022-08-07T01:55:51.639Z,17.65
2022-08-07T01:58:29.693Z,17.70
2022-08-07T02:01:09.458Z,17.66
2022-08-07T02:03:50.149Z,17.50
2022-08-07T02:06:32.027Z,17.49
2022-08-07T02:09:04.217Z,17.42
2022-08-07T02:12:02.705Z,17.44
2022-08-07T02:14:35.926Z,17.38
2022-08-07T02:17:24.790Z,17.25
2022-08-07T02:20:04.472Z,17.38
2022-08-07T02:22:38.348Z,17.50
2022-08-07T02:25:18.245Z,17.70
2022-08-07T02:27:51.922Z,17.76
2022-08-07T02:30:19.614Z,17.83
2022-08-07T02:33:00.808Z,17.96
2022-08-07T02:36:28.520Z,18.04
2022-08-07T02:38:28.201Z,18.12
2022-08-07T02:40:59.942Z,18.24
2022-08-07T02:43:30.519Z,18.34
2022-08-07T02:46:01.859Z,18.44
2022-08-07T02:48:29.178Z,18.54
2022-08-07T02:50:57.179Z,18.63
2022-08-07T02:53:38.353Z,18.64
2022-08-07T02:56:13.143Z,18.64
2022-08-07T02:58:54.044Z,18.73
2022-08-07T03:01:35.922Z,18.80
2022-08-07T03:04:12.642Z,18.79
2022-08-07T03:06:41.983Z,18.77
2022-08-07T03:09:11.615Z,18.95
2022-08-07T03:11:52.468Z,19.19
2022-08-07T03:14:28.739Z,19.11
2022-08-07T03:17:04.590Z,19.05
2022-08-07T03:19:37.020Z,19.04
2022-08-07T03:22:05.871Z,19.05
2022-08-07T03:24:37.239Z,19.08
2022-08-07T03:27:09.029Z,19.06
2022-08-07T03:29:46.045Z,19.11
2022-08-07T03:32:18.917Z,19.11
2022-08-07T03:35:01.063Z,19.09
2022-08-07T03:37:46.487Z,19.05
2022-08-07T03:40:23.610Z,18.50
2022-08-07T03:42:57.309Z,18.33
2022-08-07T03:45:30.951Z,18.28
2022-08-07T03:47:58.773Z,18.13
2022-08-07T03:50:28.581Z,17.67
2022-08-07T03:52:59.039Z,17.38
2022-08-07T03:55:55.663Z,17.16
2022-08-07T03:59:05.735Z,17.08
2022-08-07T04:01:03.378Z,17.25
2022-08-07T04:03:38.801Z,17.20
2022-08-07T04:06:37.787Z,17.15
2022-08-07T04:09:04.222Z,16.81
2022-08-07T04:12:24.615Z,16.80
2022-08-07T04:14:37.576Z,16.69
2022-08-07T04:17:20.307Z,16.50
2022-08-07T04:19:54.132Z,16.34
2022-08-07T04:22:27.510Z,16.27
2022-08-07T04:24:58.428Z,16.08
2022-08-07T04:27:26.423Z,16.12
2022-08-07T04:30:02.099Z,16.09
2022-08-07T04:32:34.771Z,15.84
2022-08-07T04:35:05.536Z,15.68
2022-08-07T04:37:40.364Z,15.66
2022-08-07T04:40:22.716Z,15.70
2022-08-07T04:43:01.896Z,15.60
2022-08-07T04:46:01.674Z,15.73
2022-08-07T04:48:47.130Z,15.60
2022-08-07T04:51:45.093Z,15.74
2022-08-07T04:54:31.050Z,15.78
2022-08-07T04:58:16.966Z,15.79
2022-08-07T05:00:11.956Z,15.80
2022-08-07T05:03:00.130Z,15.83
2022-08-07T05:05:53.889Z,15.82
2022-08-07T05:09:01.341Z,15.81
2022-08-07T05:11:57.618Z,15.90
2022-08-07T05:14:52.664Z,15.96
2022-08-07T05:17:52.455Z,16.01
2022-08-07T05:20:11.602Z,16.02
2022-08-07T05:22:41.954Z,16.11
2022-08-07T05:25:25.306Z,16.17
2022-08-07T05:28:20.172Z,16.37
2022-08-07T05:30:52.765Z,16.54
2022-08-07T05:33:25.968Z,16.70
2022-08-07T05:35:55.270Z,16.80
2022-08-07T05:38:59.635Z,16.98
2022-08-07T05:41:15.811Z,17.07
2022-08-07T05:44:01.284Z,17.21
2022-08-07T05:46:38.410Z,17.45
2022-08-07T05:49:12.651Z,17.48
2022-08-07T05:51:42.532Z,17.66
2022-08-07T05:54:30.229Z,17.77
2022-08-07T05:56:59.802Z,17.97
2022-08-07T05:59:39.075Z,18.10
2022-08-07T06:02:28.542Z,18.29
2022-08-07T06:05:01.813Z,18.42
2022-08-07T06:08:14.292Z,18.57
2022-08-07T06:10:17.493Z,18.74
2022-08-07T06:12:46.085Z,18.85
2022-08-07T06:15:20.787Z,18.92
2022-08-07T06:17:53.722Z,18.96
2022-08-07T06:20:49.913Z,19.19
2022-08-07T06:23:45.982Z,19.39
2022-08-07T06:26:02.159Z,19.56
2022-08-07T06:28:28.746Z,19.73
2022-08-07T06:30:56.229Z,19.89
2022-08-07T06:33:24.507Z,20.03
2022-08-07T06:36:13.244Z,20.10
2022-08-07T06:38:59.144Z,20.36
2022-08-07T06:42:01.030Z,20.39
2022-08-07T06:44:33.938Z,20.49
2022-08-07T06:47:10.254Z,20.70
2022-08-07T06:49:52.339Z,20.61
2022-08-07T06:52:36.093Z,20.72
2022-08-07T06:55:33.520Z,21.07
2022-08-07T06:58:04.256Z,20.96
2022-08-07T07:00:38.185Z,21.13
2022-08-07T07:03:10.912Z,21.22
2022-08-07T07:06:04.236Z,21.39
2022-08-07T07:08:29.722Z,21.55
2022-08-07T07:10:58.881Z,21.78
2022-08-07T07:13:56.292Z,21.79
2022-08-07T07:16:30.475Z,22.00
2022-08-07T07:19:04.099Z,22.15
2022-08-07T07:22:11.727Z,22.10
2022-08-07T07:24:31.989Z,22.32
2022-08-07T07:27:01.932Z,22.24
2022-08-07T07:29:56.806Z,22.40
2022-08-07T07:32:24.793Z,22.70
2022-08-07T07:34:57.586Z,22.93
2022-08-07T07:37:49.635Z,23.05
2022-08-07T07:40:26.203Z,23.03
2022-08-07T07:42:55.866Z,23.03
2022-08-07T07:46:37.036Z,23.17
2022-08-07T07:48:34.837Z,23.30
2022-08-07T07:51:07.810Z,23.44
2022-08-07T07:53:51.894Z,23.45
2022-08-07T07:56:30.047Z,23.61
2022-08-07T07:58:59.760Z,23.55
2022-08-07T08:02:01.572Z,23.90
2022-08-07T08:04:16.363Z,23.73
2022-08-07T08:06:52.259Z,24.00
2022-08-07T08:09:23.315Z,23.99
2022-08-07T08:12:02.138Z,24.26
2022-08-07T08:14:52.744Z,23.83
2022-08-07T08:17:55.709Z,23.96
2022-08-07T08:20:18.611Z,24.15
2022-08-07T08:23:11.245Z,24.20
2022-08-07T08:25:58.746Z,24.53
2022-08-07T08:28:38.726Z,24.30
2022-08-07T08:31:13.868Z,24.55
2022-08-07T08:33:49.283Z,24.78
2022-08-07T08:36:25.674Z,24.76
2022-08-07T08:38:57.506Z,25.01
2022-08-07T08:41:58.519Z,24.86
2022-08-07T08:44:41.298Z,25.21
2022-08-07T08:47:30.115Z,24.99
2022-08-07T08:50:39.712Z,25.07
2022-08-07T08:53:09.608Z,25.36
2022-08-07T08:55:55.515Z,25.58
2022-08-07T08:59:06.517Z,25.61
2022-08-07T09:02:08.871Z,25.56
2022-08-07T09:04:55.548Z,25.55
2022-08-07T09:07:57.571Z,25.98
2022-08-07T09:10:56.437Z,25.69
2022-08-07T09:13:44.506Z,25.52
2022-08-07T09:16:36.907Z,25.62
2022-08-07T09:19:53.387Z,25.82
2022-08-07T09:24:30.859Z,26.16
2022-08-07T09:25:24.386Z,25.77
2022-08-07T09:30:05.008Z,25.88
2022-08-07T09:31:15.516Z,26.17
2022-08-07T09:34:03.782Z,26.16
2022-08-07T09:36:46.851Z,26.30
2022-08-07T09:39:54.475Z,26.08
2022-08-07T09:42:41.531Z,26.29
2022-08-07T09:47:26.353Z,26.25
2022-08-07T09:48:19.056Z,26.75
2022-08-07T09:50:56.531Z,26.62
2022-08-07T09:53:40.764Z,26.75
2022-08-07T09:56:41.853Z,26.88
2022-08-07T09:59:35.688Z,26.60
2022-08-07T10:02:55.171Z,26.96
2022-08-07T10:06:02.666Z,26.92
2022-08-07T10:08:56.639Z,27.14
2022-08-07T10:12:01.885Z,27.15
2022-08-07T10:14:54.233Z,27.13
2022-08-07T10:18:00.405Z,27.10
2022-08-07T10:20:50.362Z,27.11
2022-08-07T10:24:11.084Z,26.87
2022-08-07T10:26:51.621Z,26.68
2022-08-07T10:29:45.580Z,26.92
2022-08-07T10:32:59.477Z,27.13
2022-08-07T10:35:55.870Z,27.38
2022-08-07T10:38:47.870Z,27.35
2022-08-07T10:41:47.241Z,27.45
2022-08-07T10:44:37.763Z,27.41
2022-08-07T10:47:53.279Z,27.28
2022-08-07T10:50:29.376Z,27.50
2022-08-07T10:53:09.160Z,27.60
2022-08-07T10:55:47.295Z,27.52
2022-08-07T10:58:32.057Z,27.47
2022-08-07T11:01:35.294Z,27.39
2022-08-07T11:04:46.139Z,27.48
2022-08-07T11:07:58.923Z,27.58
2022-08-07T11:11:06.677Z,27.64
2022-08-07T11:14:44.102Z,27.52
2022-08-07T11:16:52.862Z,27.76
2022-08-07T11:19:42.069Z,27.82
2022-08-07T11:22:33.279Z,27.69
2022-08-07T11:25:11.277Z,27.71
2022-08-07T11:28:02.739Z,27.68
2022-08-07T11:30:45.312Z,27.68
2022-08-07T11:33:59.801Z,27.56
2022-08-07T11:36:30.559Z,27.64
2022-08-07T11:39:59.197Z,27.37
2022-08-07T11:42:55.860Z,27.64
2022-08-07T11:45:35.987Z,27.67
2022-08-07T11:48:18.169Z,27.74
2022-08-07T11:51:41.520Z,27.73
2022-08-07T11:54:25.374Z,27.85
2022-08-07T11:56:58.072Z,27.91
2022-08-07T12:00:12.127Z,28.08
2022-08-07T12:03:44.833Z,28.25
2022-08-07T12:06:36.923Z,28.32
2022-08-07T12:09:16.646Z,28.11
2022-08-07T12:12:10.518Z,27.99
2022-08-07T12:14:55.650Z,27.91
2022-08-07T12:17:38.525Z,28.15
2022-08-07T12:20:30.697Z,27.90
2022-08-07T12:23:14.287Z,28.28
2022-08-07T12:26:22.202Z,28.40
2022-08-07T12:29:12.967Z,28.52
2022-08-07T12:32:04.593Z,28.26
2022-08-07T12:34:38.756Z,28.23
2022-08-07T12:37:27.851Z,27.92
2022-08-07T12:39:57.613Z,28.21
2022-08-07T12:42:32.088Z,28.39
2022-08-07T12:45:05.631Z,27.96
2022-08-07T12:47:42.749Z,28.17
2022-08-07T12:50:39.146Z,28.25
2022-08-07T12:53:18.053Z,28.28
2022-08-07T12:56:02.504Z,28.32
2022-08-07T12:58:37.490Z,28.49
2022-08-07T13:01:06.366Z,28.52
2022-08-07T13:04:02.431Z,28.20
2022-08-07T13:07:01.847Z,28.59
2022-08-07T13:10:21.394Z,28.53
2022-08-07T13:12:33.615Z,28.45
2022-08-07T13:15:43.062Z,28.36
2022-08-07T13:18:31.267Z,28.56
2022-08-07T13:21:37.774Z,28.56
2022-08-07T13:24:30.711Z,28.62
2022-08-07T13:27:23.994Z,28.38
2022-08-07T13:30:19.345Z,28.56
2022-08-07T13:34:31.486Z,28.37
2022-08-07T13:36:28.686Z,28.32
2022-08-07T13:38:58.953Z,28.49
2022-08-07T13:41:47.303Z,28.61
2022-08-07T13:44:25.829Z,28.54
2022-08-07T13:46:58.852Z,28.47
2022-08-07T13:50:33.120Z,28.31
2022-08-07T13:52:32.532Z,28.25
2022-08-07T13:55:10.930Z,28.27
2022-08-07T13:57:59.032Z,28.28
2022-08-07T14:00:54.431Z,28.25
2022-08-07T14:03:29.089Z,28.36
2022-08-07T14:06:12.527Z,28.38
2022-08-07T14:08:48.656Z,28.13
2022-08-07T14:11:23.279Z,28.17
2022-08-07T14:13:56.624Z,28.31
2022-08-07T14:16:31.627Z,28.29
2022-08-07T14:19:06.060Z,28.15
2022-08-07T14:22:02.520Z,28.29
2022-08-07T14:24:37.545Z,28.17
2022-08-07T14:28:09.897Z,28.21
2022-08-07T14:30:11.014Z,28.11
2022-08-07T14:32:56.708Z,28.17
2022-08-07T14:35:45.327Z,28.07
2022-08-07T14:38:26.060Z,28.10
2022-08-07T14:40:58.570Z,27.99
2022-08-07T14:43:57.492Z,28.02
2022-08-07T14:46:18.808Z,28.08
2022-08-07T14:48:57.912Z,27.92
2022-08-07T14:52:05.143Z,27.89
2022-08-07T14:54:32.884Z,27.81
2022-08-07T14:57:05.458Z,27.71
2022-08-07T15:00:05.568Z,27.81
2022-08-07T15:02:34.559Z,27.81
2022-08-07T15:07:59.712Z,27.85
2022-08-07T15:10:39.082Z,27.85
2022-08-07T15:13:35.872Z,27.72
2022-08-07T15:16:33.690Z,27.81
2022-08-07T15:19:02.523Z,27.75
2022-08-07T15:25:16.381Z,27.74
2022-08-07T15:27:34.158Z,27.59
2022-08-07T15:30:16.275Z,27.62
2022-08-07T15:33:03.890Z,27.64
2022-08-07T15:36:02.224Z,27.59
2022-08-07T15:38:58.928Z,27.60
2022-08-07T15:42:44.235Z,27.53
2022-08-07T15:44:26.110Z,27.53
2022-08-07T15:47:08.962Z,27.55
2022-08-07T15:50:04.859Z,27.50
2022-08-07T15:52:38.090Z,27.53
2022-08-07T15:55:16.129Z,27.55
2022-08-07T15:57:51.131Z,27.62
2022-08-07T16:00:31.564Z,27.63
2022-08-07T16:03:06.950Z,27.59
2022-08-07T16:05:56.153Z,27.55
2022-08-07T16:08:31.925Z,27.50
2022-08-07T16:11:26.559Z,27.52
2022-08-07T16:14:20.214Z,27.54
2022-08-07T16:17:15.359Z,27.53
2022-08-07T16:19:59.146Z,27.53
2022-08-07T16:22:54.463Z,27.50
2022-08-07T16:25:55.332Z,27.51
2022-08-07T16:30:08.534Z,27.48
2022-08-07T16:31:49.985Z,27.50
2022-08-07T16:34:38.179Z,27.51
2022-08-07T16:38:05.267Z,27.49
2022-08-07T16:41:11.229Z,27.44
2022-08-07T16:44:46.191Z,27.43
2022-08-07T16:47:16.723Z,27.36
2022-08-07T16:50:26.547Z,27.33
2022-08-07T16:53:20.793Z,27.36
2022-08-07T16:56:14.094Z,27.36
2022-08-07T16:59:14.588Z,27.34
2022-08-07T17:01:53.686Z,27.27
2022-08-07T17:04:58.530Z,27.25
2022-08-07T17:07:55.841Z,27.25
2022-08-07T17:10:39.618Z,27.25
2022-08-07T17:13:40.403Z,27.29
2022-08-07T17:16:22.541Z,27.25
2022-08-07T17:20:00.816Z,27.21
2022-08-07T17:22:36.498Z,27.18
2022-08-07T17:25:15.637Z,27.14
2022-08-07T17:27:54.125Z,27.18
2022-08-07T17:30:27.232Z,27.13
2022-08-07T17:34:09.924Z,27.12
2022-08-07T17:36:32.436Z,27.03
2022-08-07T17:39:58.413Z,27.02
2022-08-07T17:42:27.561Z,26.99
2022-08-07T17:44:58.734Z,26.97
2022-08-07T17:47:42.658Z,26.98
2022-08-07T17:50:22.778Z,27.02
2022-08-07T17:54:01.272Z,26.92
2022-08-07T17:56:49.845Z,26.84
2022-08-07T17:59:45.109Z,26.88
2022-08-07T18:02:29.503Z,26.83
2022-08-07T18:05:21.808Z,26.80
2022-08-07T18:08:24.444Z,26.74
2022-08-07T18:12:06.234Z,26.68
2022-08-07T18:14:03.255Z,26.66
2022-08-07T18:16:33.979Z,26.65
2022-08-07T18:21:08.885Z,26.59
2022-08-07T18:22:15.163Z,26.52
2022-08-07T18:24:57.260Z,26.46
2022-08-07T18:27:38.075Z,26.44
2022-08-07T18:30:30.762Z,26.42
2022-08-07T18:33:26.911Z,26.37
2022-08-07T18:36:10.448Z,26.30
2022-08-07T18:40:06.407Z,26.22
2022-08-07T18:42:04.196Z,26.16
2022-08-07T18:45:43.006Z,26.07
2022-08-07T18:48:00.917Z,26.01
2022-08-07T18:50:46.040Z,26.01
2022-08-07T18:53:40.798Z,25.98
2022-08-07T18:56:16.374Z,25.83
2022-08-07T18:59:05.166Z,25.78
2022-08-07T19:02:32.811Z,25.59
2022-08-07T19:04:57.547Z,25.60
2022-08-07T19:07:58.773Z,25.53
2022-08-07T19:10:31.463Z,25.48
2022-08-07T19:13:25.425Z,25.34
2022-08-07T19:17:00.624Z,24.90
2022-08-07T19:18:50.423Z,24.70
2022-08-07T19:21:53.383Z,24.76
2022-08-07T19:24:44.430Z,24.59
2022-08-07T19:28:30.268Z,24.56
2022-08-07T19:31:03.675Z,24.45
2022-08-07T19:32:59.717Z,24.36
2022-08-07T19:35:28.371Z,24.38
2022-08-07T19:38:03.386Z,24.39
2022-08-07T19:40:38.614Z,24.36
2022-08-07T19:43:45.660Z,24.29
2022-08-07T19:46:15.973Z,24.30
2022-08-07T19:48:53.482Z,24.15
2022-08-07T19:51:50.601Z,24.12
2022-08-07T19:54:34.191Z,24.05
2022-08-07T19:57:52.448Z,24.09
2022-08-07T19:59:54.321Z,24.10
2022-08-07T20:02:34.776Z,24.10
2022-08-07T20:05:08.694Z,24.07
2022-08-07T20:07:45.880Z,24.01
2022-08-07T20:10:38.042Z,23.96
2022-08-07T20:13:15.781Z,23.84
2022-08-07T20:15:57.619Z,23.89
2022-08-07T20:18:33.632Z,23.86
2022-08-07T20:21:21.350Z,23.80
2022-08-07T20:23:54.970Z,23.73
2022-08-07T20:26:32.196Z,23.69
2022-08-07T20:29:10.487Z,23.56
2022-08-07T20:31:54.376Z,23.63
2022-08-07T20:34:49.599Z,23.63
2022-08-07T20:37:29.940Z,23.57
2022-08-07T20:40:05.429Z,23.55
2022-08-07T20:43:02.365Z,23.48
2022-08-07T20:46:26.125Z,23.47
2022-08-07T20:48:29.036Z,23.42
2022-08-07T20:50:59.539Z,23.45
2022-08-07T20:54:04.014Z,23.39
2022-08-07T20:56:16.518Z,23.38
2022-08-07T20:58:53.177Z,23.36
2022-08-07T21:01:22.205Z,23.29
2022-08-07T21:04:19.550Z,23.29
2022-08-07T21:06:53.205Z,23.13
2022-08-07T21:09:24.249Z,23.19
2022-08-07T21:11:57.146Z,23.16
2022-08-07T21:14:33.243Z,23.10
2022-08-07T21:18:20.582Z,23.06
2022-08-07T21:20:07.639Z,22.95
2022-08-07T21:22:53.242Z,22.98
2022-08-07T21:25:29.930Z,22.92
2022-08-07T21:28:16.751Z,22.93
2022-08-07T21:31:49.339Z,22.86
2022-08-07T21:34:16.354Z,22.81
2022-08-07T21:36:51.900Z,22.73
2022-08-07T21:39:46.324Z,22.75
2022-08-07T21:46:07.725Z,22.66
2022-08-07T21:48:42.311Z,22.58
2022-08-07T21:51:32.269Z,22.56
2022-08-07T21:54:19.209Z,22.54
2022-08-07T21:57:01.455Z,22.50
2022-08-07T22:00:04.028Z,22.50
2022-08-07T22:02:48.023Z,22.38
2022-08-07T22:05:43.809Z,22.38
2022-08-07T22:08:10.262Z,22.33
2022-08-07T22:10:42.514Z,22.26
2022-08-07T22:13:14.231Z,22.21
2022-08-07T22:16:39.638Z,22.21
2022-08-07T22:19:00.949Z,22.17
2022-08-07T22:22:04.763Z,22.21
2022-08-07T22:24:40.950Z,22.17
2022-08-07T22:27:18.774Z,22.13
2022-08-07T22:29:55.012Z,21.97
2022-08-07T22:32:55.693Z,21.96
2022-08-07T22:35:24.969Z,21.92
2022-08-07T22:38:28.450Z,21.90
2022-08-07T22:41:07.710Z,21.85
2022-08-07T22:43:56.070Z,21.85
2022-08-07T22:47:04.359Z,21.71
2022-08-07T22:49:54.856Z,21.70
2022-08-07T22:52:37.577Z,21.62
2022-08-07T22:55:30.080Z,21.60
2022-08-07T22:58:37.756Z,21.56
2022-08-07T23:01:06.682Z,21.54
2022-08-07T23:03:57.912Z,21.49
2022-08-07T23:06:38.760Z,21.44
2022-08-07T23:10:03.513Z,21.41
2022-08-07T23:12:09.612Z,21.33
2022-08-07T23:14:48.547Z,21.09
2022-08-07T23:17:33.641Z,21.02
2022-08-07T23:20:51.915Z,20.98
2022-08-07T23:24:04.582Z,21.01
2022-08-07T23:26:23.456Z,20.96
2022-08-07T23:29:01.952Z,20.90
2022-08-07T23:32:49.067Z,20.73
2022-08-07T23:34:39.568Z,20.79
2022-08-07T23:38:01.240Z,20.71
2022-08-07T23:40:34.806Z,20.57
2022-08-07T23:43:37.927Z,20.47
2022-08-07T23:46:27.295Z,20.16
2022-08-07T23:48:56.267Z,19.95
2022-08-07T23:52:58.529Z,20.04
2022-08-07T23:54:53.989Z,19.78
2022-08-07T23:57:52.810Z,19.50
